Time;durP1;ratioP1;P1;durP2;ratioP2;P2;SDS_P1;SDS_P2;PMS_P1;PMS_P2;Temp;Humidity;BMP_temperature;BMP_pressure;BME280_temperature;BME280_humidity;BME280_pressure;Samples;Min_cycle;Max_cycle;Signal;HPM_P1;HPM_P2
2023/04/04 00:00:39;;;;;;;16.38;4.15;;;-4.20;99.90;;;;;;4891429;29;20045;-62
2023/04/04 00:03:06;;;;;;;16.37;5.87;;;-4.20;99.90;;;;;;4891903;29;20056;-67
2023/04/04 00:05:34;;;;;;;8.83;4.30;;;-4.20;99.90;;;;;;4885958;29;20425;-63
2023/04/04 00:08:04;;;;;;;13.18;4.13;;;-4.20;99.90;;;;;;4891108;29;20093;-60
2023/04/04 00:10:31;;;;;;;18.08;5.22;;;-4.30;99.90;;;;;;4890879;29;20064;-62
2023/04/04 00:12:58;;;;;;;9.32;5.15;;;-4.30;99.90;;;;;;4890556;29;20052;-67
2023/04/04 00:15:26;;;;;;;17.23;4.57;;;-4.30;99.90;;;;;;4891386;29;20060;-61
2023/04/04 00:17:53;;;;;;;14.63;4.40;;;-4.40;99.90;;;;;;4889009;29;20415;-63
2023/04/04 00:20:19;;;;;;;12.23;5.23;;;-4.40;99.90;;;;;;4889777;29;20451;-61
2023/04/04 00:22:46;;;;;;;10.67;5.50;;;-4.40;99.90;;;;;;4889948;29;20064;-60
2023/04/04 00:25:14;;;;;;;7.17;3.97;;;-4.40;99.90;;;;;;4888591;29;20045;-61
2023/04/04 00:27:41;;;;;;;9.45;5.18;;;-4.40;99.90;;;;;;4893496;29;20697;-63
2023/04/04 00:30:08;;;;;;;12.10;4.33;;;-4.40;99.90;;;;;;4889702;29;20048;-62
2023/04/04 00:32:35;;;;;;;7.57;3.27;;;-4.50;99.90;;;;;;4882281;29;20057;-62
2023/04/04 00:35:02;;;;;;;14.13;5.43;;;-4.50;99.90;;;;;;4894376;29;20048;-62
2023/04/04 00:37:29;;;;;;;12.43;3.80;;;-4.50;99.90;;;;;;4884981;29;20058;-62
2023/04/04 00:39:56;;;;;;;10.17;3.43;;;-4.50;99.90;;;;;;4891112;29;20048;-61
2023/04/04 00:42:23;;;;;;;13.02;4.75;;;-4.50;99.90;;;;;;4888820;29;20049;-60
2023/04/04 00:44:51;;;;;;;11.53;5.37;;;-4.50;99.90;;;;;;4875459;29;20054;-61
2023/04/04 00:47:22;;;;;;;12.23;3.70;;;-4.50;99.90;;;;;;4890137;29;20052;-63
2023/04/04 00:49:48;;;;;;;8.53;3.30;;;-4.60;99.90;;;;;;4875201;29;20639;-61
2023/04/04 00:52:16;;;;;;;7.18;3.10;;;-4.60;99.90;;;;;;4888068;29;20136;-60
2023/04/04 00:54:42;;;;;;;8.90;3.37;;;-4.60;99.90;;;;;;4890298;29;20080;-65
2023/04/04 00:57:10;;;;;;;9.37;4.90;;;-4.60;99.90;;;;;;4891777;29;20503;-61
2023/04/04 00:59:37;;;;;;;7.37;2.80;;;-4.60;99.90;;;;;;4886650;29;20052;-61
2023/04/04 01:02:05;;;;;;;13.83;3.83;;;-4.60;99.90;;;;;;4889534;29;20135;-64
2023/04/04 01:04:31;;;;;;;3.47;2.77;;;-4.60;99.90;;;;;;4887009;29;20053;-61
2023/04/04 01:06:59;;;;;;;11.67;2.93;;;-4.60;99.90;;;;;;4888884;29;20054;-63
2023/04/04 01:09:27;;;;;;;14.87;3.57;;;-4.60;99.90;;;;;;4885334;29;20056;-64
2023/04/04 01:11:56;;;;;;;13.90;3.77;;;-4.60;99.90;;;;;;4891697;29;20052;-60
2023/04/04 01:14:25;;;;;;;10.07;3.90;;;-4.60;99.90;;;;;;4879073;29;20049;-61
2023/04/04 01:16:52;;;;;;;10.80;4.10;;;-4.60;99.90;;;;;;4887234;29;20063;-60
2023/04/04 01:19:49;;;;;;;;;;;-4.60;99.90;;;;;;4884098;29;20056;-60
2023/04/04 01:22:20;;;;;;;12.67;5.10;;;-4.60;99.90;;;;;;4862865;29;19991;-62
2023/04/04 01:24:48;;;;;;;6.73;3.30;;;-4.60;99.90;;;;;;4871046;29;20053;-60
2023/04/04 01:27:15;;;;;;;6.67;2.97;;;-4.60;99.90;;;;;;4886842;29;20519;-66
2023/04/04 01:29:50;;;;;;;8.33;3.30;;;-4.60;99.90;;;;;;4868804;29;20163;-60
2023/04/04 01:32:18;;;;;;;5.33;3.23;;;-4.50;99.90;;;;;;4887553;29;20090;-61
2023/04/04 01:35:12;;;;;;;12.93;3.73;;;-4.50;99.90;;;;;;4872798;29;20151;-61
2023/04/04 01:37:55;;;;;;;3.93;2.60;;;-4.30;99.90;;;;;;4887892;29;20499;-60
2023/04/04 01:40:27;;;;;;;4.53;2.87;;;-4.30;99.90;;;;;;4887741;29;20064;-61
2023/04/04 01:42:55;;;;;;;7.83;2.13;;;-4.20;99.90;;;;;;4873451;29;20148;-67
2023/04/04 01:45:23;;;;;;;8.60;2.70;;;-4.20;99.90;;;;;;4885861;29;20131;-61
2023/04/04 01:47:50;;;;;;;6.40;2.77;;;-4.10;99.90;;;;;;4884102;29;20063;-62
2023/04/04 01:50:21;;;;;;;10.05;2.25;;;-4.10;99.90;;;;;;4886885;29;20052;-65
2023/04/04 01:52:48;;;;;;;9.43;2.57;;;-4.10;99.90;;;;;;4888172;29;20064;-63
2023/04/04 01:55:15;;;;;;;5.47;2.20;;;-4.00;99.90;;;;;;4878942;29;20419;-62
2023/04/04 01:57:42;;;;;;;9.30;3.70;;;-4.10;99.90;;;;;;4886872;29;20175;-65
2023/04/04 02:00:10;;;;;;;5.17;2.43;;;-4.10;99.90;;;;;;4886970;29;20118;-61
2023/04/04 02:02:43;;;;;;;3.83;2.63;;;-4.20;99.90;;;;;;4889626;29;20104;-64
2023/04/04 02:05:10;;;;;;;9.93;2.65;;;-4.20;99.90;;;;;;4884089;29;20064;-60
2023/04/04 02:07:37;;;;;;;7.40;2.25;;;-4.20;99.90;;;;;;4886482;29;20060;-60
2023/04/04 02:10:12;;;;;;;5.40;2.47;;;-4.20;99.90;;;;;;4889245;29;20124;-60
2023/04/04 02:12:39;;;;;;;5.40;2.53;;;-4.20;99.90;;;;;;4890357;29;20103;-62
2023/04/04 02:15:07;;;;;;;12.83;3.33;;;-4.20;99.90;;;;;;4889307;29;20045;-60
2023/04/04 02:17:34;;;;;;;4.90;1.90;;;-4.20;99.90;;;;;;4885192;29;20135;-61
2023/04/04 02:20:02;;;;;;;6.77;2.03;;;-4.10;99.90;;;;;;4884571;29;20059;-61
2023/04/04 02:22:29;;;;;;;7.90;2.50;;;-4.10;99.90;;;;;;4892273;29;20048;-63
2023/04/04 02:24:56;;;;;;;8.30;2.60;;;-4.10;99.90;;;;;;4888193;29;20076;-61
2023/04/04 02:27:23;;;;;;;9.27;2.63;;;-4.10;99.90;;;;;;4884896;29;20078;-62
2023/04/04 02:29:50;;;;;;;8.90;3.10;;;-4.10;99.90;;;;;;4883273;29;20119;-62
2023/04/04 02:32:17;;;;;;;5.80;2.50;;;-4.10;99.90;;;;;;4882023;29;20060;-59
2023/04/04 02:34:44;;;;;;;8.10;2.10;;;-4.10;99.90;;;;;;4875919;29;21374;-64
2023/04/04 02:37:11;;;;;;;9.37;2.70;;;-4.10;99.90;;;;;;4890498;29;20403;-60
2023/04/04 02:39:38;;;;;;;10.17;2.33;;;-4.20;99.90;;;;;;4866927;29;20075;-60
2023/04/04 02:42:05;;;;;;;9.63;2.87;;;-4.20;99.90;;;;;;4888891;29;20060;-60
2023/04/04 02:44:32;;;;;;;10.23;3.77;;;-4.20;99.90;;;;;;4888571;29;20052;-60
2023/04/04 02:46:59;;;;;;;6.87;2.03;;;-4.20;99.90;;;;;;4880908;29;20059;-63
2023/04/04 02:49:29;;;;;;;8.35;2.03;;;-4.20;99.90;;;;;;4881618;29;20053;-64
2023/04/04 02:51:56;;;;;;;6.15;1.90;;;-4.20;99.90;;;;;;4890488;29;20055;-61
2023/04/04 02:54:27;;;;;;;5.57;2.40;;;-4.20;99.90;;;;;;4886663;29;20052;-60
2023/04/04 02:56:54;;;;;;;3.90;1.70;;;-4.20;99.90;;;;;;4886794;29;20057;-65
2023/04/04 02:59:21;;;;;;;13.57;2.93;;;-4.20;99.90;;;;;;4885597;29;20733;-61
2023/04/04 03:01:48;;;;;;;9.80;2.80;;;-4.20;99.90;;;;;;4888539;29;20132;-59
2023/04/04 03:04:15;;;;;;;2.03;1.37;;;-4.20;99.90;;;;;;4884675;29;20407;-62
2023/04/04 03:06:42;;;;;;;8.67;1.77;;;-4.30;99.90;;;;;;4889973;29;20494;-62
2023/04/04 03:09:10;;;;;;;7.50;2.10;;;-4.30;99.90;;;;;;4891912;29;20060;-64
2023/04/04 03:11:36;;;;;;;9.77;2.45;;;-4.40;99.90;;;;;;4890014;29;20143;-63
2023/04/04 03:14:04;;;;;;;8.03;2.10;;;-4.40;99.90;;;;;;4881611;29;20052;-62
2023/04/04 03:16:35;;;;;;;6.83;2.80;;;-4.40;99.90;;;;;;4883329;29;20080;-65
2023/04/04 03:19:02;;;;;;;4.40;1.77;;;-4.50;99.90;;;;;;4892669;29;20466;-61
2023/04/04 03:21:29;;;;;;;9.07;4.30;;;-4.50;99.90;;;;;;4872507;29;20453;-61
2023/04/04 03:23:57;;;;;;;4.37;2.10;;;-4.50;99.90;;;;;;4871533;29;20052;-63
2023/04/04 03:26:24;;;;;;;8.53;2.57;;;-4.50;99.90;;;;;;4889081;29;20060;-61
2023/04/04 03:28:51;;;;;;;5.63;2.10;;;-4.50;99.90;;;;;;4869368;29;20049;-63
2023/04/04 03:31:20;;;;;;;4.90;2.53;;;-4.50;99.90;;;;;;4879048;29;20056;-65
2023/04/04 03:33:47;;;;;;;7.70;3.50;;;-4.50;99.90;;;;;;4894136;29;20060;-60
2023/04/04 03:36:15;;;;;;;6.03;2.27;;;-4.50;99.90;;;;;;4891406;29;20140;-60
2023/04/04 03:38:45;;;;;;;7.00;1.93;;;-4.60;99.90;;;;;;4889490;29;20055;-61
2023/04/04 03:41:12;;;;;;;7.27;1.87;;;-4.60;99.90;;;;;;4891402;29;21118;-63
2023/04/04 03:43:39;;;;;;;3.83;1.83;;;-4.60;99.90;;;;;;4873105;29;20059;-61
2023/04/04 03:46:07;;;;;;;10.70;1.70;;;-4.70;99.90;;;;;;4891570;29;20700;-61
2023/04/04 03:48:34;;;;;;;7.83;2.23;;;-4.70;99.90;;;;;;4870644;29;20569;-62
2023/04/04 03:51:03;;;;;;;10.48;1.63;;;-4.70;99.90;;;;;;4888160;29;20048;-61
2023/04/04 03:53:31;;;;;;;10.57;2.27;;;-4.70;99.90;;;;;;4872399;29;20473;-61
2023/04/04 03:55:58;;;;;;;5.43;3.10;;;-4.60;99.90;;;;;;4874763;29;20076;-60
2023/04/04 03:58:27;;;;;;;6.13;2.90;;;-4.70;99.90;;;;;;4883401;29;20499;-60
2023/04/04 04:00:54;;;;;;;6.80;3.17;;;-4.60;99.90;;;;;;4891442;29;20052;-60
2023/04/04 04:03:22;;;;;;;7.20;2.43;;;-4.60;99.90;;;;;;4887596;29;20052;-61
2023/04/04 04:05:50;;;;;;;9.00;3.27;;;-4.60;99.90;;;;;;4890520;29;20048;-60
2023/04/04 04:08:17;;;;;;;11.17;2.00;;;-4.60;99.90;;;;;;4879471;29;20056;-62
2023/04/04 04:10:44;;;;;;;7.30;3.17;;;-4.60;99.90;;;;;;4876648;29;20060;-61
2023/04/04 04:13:10;;;;;;;8.20;1.97;;;-4.60;99.90;;;;;;4895507;29;20087;-62
2023/04/04 04:15:37;;;;;;;6.53;2.17;;;-4.60;99.90;;;;;;4870636;29;20152;-62
2023/04/04 04:18:09;;;;;;;12.13;2.80;;;-4.60;99.90;;;;;;4888292;29;20135;-60
2023/04/04 04:20:36;;;;;;;16.90;3.73;;;-4.60;99.90;;;;;;4887352;29;20112;-62
2023/04/04 04:23:03;;;;;;;11.80;2.77;;;-4.50;99.90;;;;;;4891461;29;20052;-61
2023/04/04 04:25:30;;;;;;;9.40;4.30;;;-4.50;99.90;;;;;;4887999;29;20117;-64
2023/04/04 04:28:14;;;;;;;9.73;2.40;;;-4.50;99.90;;;;;;4886108;29;20053;-60
2023/04/04 04:30:41;;;;;;;9.23;4.17;;;-4.50;99.90;;;;;;4886658;29;20053;-63
2023/04/04 04:33:08;;;;;;;10.17;2.43;;;-4.50;99.90;;;;;;4868755;29;20059;-61
2023/04/04 04:35:45;;;;;;;14.00;6.60;;;-4.40;99.90;;;;;;4884800;29;20849;-62
2023/04/04 04:38:13;;;;;;;13.23;5.30;;;-4.40;99.90;;;;;;4870097;29;20080;-61
2023/04/04 04:40:40;;;;;;;16.20;3.60;;;-4.40;99.90;;;;;;4889289;29;20056;-63
2023/04/04 04:43:14;;;;;;;30.70;5.07;;;-4.30;99.90;;;;;;4875976;29;20057;-61
2023/04/04 04:45:41;;;;;;;15.30;4.03;;;-4.30;99.90;;;;;;4884335;29;20139;-64
2023/04/04 04:48:10;;;;;;;14.77;3.30;;;-4.20;99.90;;;;;;4875198;29;20048;-61
2023/04/04 04:50:44;;;;;;;16.53;3.33;;;-4.20;99.90;;;;;;4870630;29;20044;-62
2023/04/04 04:53:13;;;;;;;24.27;5.30;;;-4.20;99.90;;;;;;4877261;29;20052;-61
2023/04/04 04:55:44;;;;;;;23.03;3.40;;;-4.20;99.90;;;;;;4885898;29;20154;-62
2023/04/04 04:58:11;;;;;;;19.80;4.43;;;-4.20;99.90;;;;;;4873084;29;20059;-62
2023/04/04 05:00:43;;;;;;;18.48;3.35;;;-4.10;99.90;;;;;;4886372;29;20052;-62
2023/04/04 05:03:10;;;;;;;21.27;3.63;;;-4.10;99.90;;;;;;4877026;29;20052;-65
2023/04/04 05:05:44;;;;;;;29.00;4.00;;;-4.00;99.90;;;;;;4884611;29;20107;-63
2023/04/04 05:08:13;;;;;;;31.48;4.93;;;-4.00;99.90;;;;;;4874449;29;20052;-61
2023/04/04 05:10:51;;;;;;;34.27;6.30;;;-3.90;99.90;;;;;;4881215;29;20057;-61
2023/04/04 05:13:19;;;;;;;27.73;7.80;;;-3.80;99.90;;;;;;4871293;29;20148;-62
2023/04/04 05:15:47;;;;;;;33.10;11.63;;;-3.70;99.90;;;;;;4883755;29;20053;-64
2023/04/04 05:18:15;;;;;;;24.93;7.50;;;-3.70;99.90;;;;;;4886329;29;20056;-64
2023/04/04 05:20:50;;;;;;;30.83;8.07;;;-3.60;99.90;;;;;;4874814;29;20056;-63
2023/04/04 05:23:18;;;;;;;35.30;9.13;;;-3.50;99.90;;;;;;4882219;29;20430;-63
2023/04/04 05:25:48;;;;;;;29.02;8.95;;;-3.30;99.90;;;;;;4885579;29;20233;-63
2023/04/04 05:28:16;;;;;;;22.98;5.35;;;-3.20;99.90;;;;;;4869542;29;20045;-63
2023/04/04 05:30:43;;;;;;;14.95;3.75;;;-3.10;99.90;;;;;;4887256;29;20104;-62
2023/04/04 05:33:17;;;;;;;15.30;2.93;;;-3.00;99.90;;;;;;4886328;29;20094;-64
2023/04/04 05:35:55;;;;;;;16.58;3.22;;;-2.90;99.90;;;;;;4871505;29;20056;-64
2023/04/04 05:38:22;;;;;;;22.80;3.35;;;-2.70;99.90;;;;;;4887705;29;20339;-61
2023/04/04 05:40:54;;;;;;;21.70;4.00;;;-2.60;99.90;;;;;;4887630;29;20048;-65
2023/04/04 05:43:22;;;;;;;26.80;3.05;;;-2.50;99.90;;;;;;4882277;29;20048;-62
2023/04/04 05:46:00;;;;;;;11.63;2.28;;;-2.30;99.90;;;;;;4867362;29;20048;-64
2023/04/04 05:48:32;;;;;;;12.32;4.47;;;-2.20;99.90;;;;;;4890761;29;20586;-62
2023/04/04 05:50:59;;;;;;;17.65;2.08;;;-2.10;99.90;;;;;;4886291;29;20044;-61
2023/04/04 05:53:39;;;;;;;9.98;2.58;;;-2.00;99.90;;;;;;4864860;29;20056;-62
2023/04/04 05:56:06;;;;;;;13.68;2.40;;;-1.90;99.90;;;;;;4881303;29;20480;-62
2023/04/04 05:58:33;;;;;;;11.50;4.85;;;-1.80;99.90;;;;;;4884210;29;20599;-62
2023/04/04 06:01:07;;;;;;;17.38;2.95;;;-1.70;99.90;;;;;;4867090;29;20061;-63
2023/04/04 06:03:35;;;;;;;15.85;3.45;;;-1.50;99.90;;;;;;4870448;29;20048;-60
2023/04/04 06:06:05;;;;;;;17.27;2.33;;;-1.40;99.90;;;;;;4885551;29;20095;-64
2023/04/04 06:08:32;;;;;;;8.25;2.50;;;-1.30;99.90;;;;;;4887899;29;20067;-63
2023/04/04 06:11:18;;;;;;;13.50;3.70;;;-1.20;99.90;;;;;;4878923;29;20049;-62
2023/04/04 06:13:45;;;;;;;15.00;4.15;;;-1.10;99.90;;;;;;4886182;29;20511;-62
2023/04/04 06:16:15;;;;;;;7.03;1.95;;;-1.00;99.90;;;;;;4868543;29;20056;-61
2023/04/04 06:18:43;;;;;;;7.25;1.50;;;-1.00;99.90;;;;;;4886812;29;20414;-64
2023/04/04 06:21:10;;;;;;;9.65;1.48;;;-0.80;99.90;;;;;;4869864;29;20087;-63
2023/04/04 06:23:39;;;;;;;9.77;2.20;;;-0.70;99.90;;;;;;4869633;29;20141;-61
2023/04/04 06:26:07;;;;;;;11.23;2.83;;;-0.60;99.90;;;;;;4885178;29;20171;-62
2023/04/04 06:28:35;;;;;;;3.67;1.73;;;-0.50;99.90;;;;;;4882068;29;20064;-62
2023/04/04 06:31:05;;;;;;;12.75;2.42;;;-0.40;99.90;;;;;;4875855;29;20051;-61
2023/04/04 06:33:32;;;;;;;1.67;0.90;;;-0.40;99.90;;;;;;4870985;29;20056;-61
2023/04/04 06:36:00;;;;;;;2.50;1.27;;;-0.20;99.90;;;;;;4884767;29;20053;-62
2023/04/04 06:38:28;;;;;;;11.68;1.92;;;-0.20;99.90;;;;;;4889891;29;20048;-64
2023/04/04 06:40:57;;;;;;;5.55;1.10;;;-0.10;99.90;;;;;;4880315;29;20409;-62
2023/04/04 06:43:24;;;;;;;2.80;0.90;;;0.00;99.90;;;;;;4888989;29;20056;-62
2023/04/04 06:45:51;;;;;;;2.83;1.00;;;0.00;99.90;;;;;;4888098;29;20055;-64
2023/04/04 06:48:19;;;;;;;4.95;1.15;;;0.00;99.90;;;;;;4887122;29;20415;-61
2023/04/04 06:50:46;;;;;;;4.70;1.35;;;0.10;99.90;;;;;;4891439;29;20049;-62
2023/04/04 06:53:15;;;;;;;13.15;2.45;;;0.20;99.90;;;;;;4888492;29;20566;-63
2023/04/04 06:55:43;;;;;;;9.15;2.08;;;0.20;99.90;;;;;;4873871;29;20049;-63
2023/04/04 06:58:10;;;;;;;4.68;1.67;;;0.20;99.90;;;;;;4877071;29;20463;-63
2023/04/04 07:00:36;;;;;;;5.05;0.93;;;0.30;99.90;;;;;;4891117;29;20587;-63
2023/04/04 07:03:04;;;;;;;11.20;2.17;;;0.20;99.90;;;;;;4891298;29;20052;-60
2023/04/04 07:05:31;;;;;;;9.38;1.13;;;0.30;99.90;;;;;;4890781;29;20250;-61
2023/04/04 07:07:58;;;;;;;2.22;0.82;;;0.30;99.90;;;;;;4890358;29;20415;-62
2023/04/04 07:10:25;;;;;;;5.45;1.00;;;0.40;99.90;;;;;;4890458;29;20059;-61
2023/04/04 07:12:52;;;;;;;1.95;1.02;;;0.50;99.90;;;;;;4892121;29;20055;-62
2023/04/04 07:15:20;;;;;;;6.70;1.02;;;0.50;99.90;;;;;;4889309;29;20049;-61
2023/04/04 07:17:46;;;;;;;7.95;1.63;;;0.50;99.90;;;;;;4886191;29;23595;-61
2023/04/04 07:20:14;;;;;;;2.53;0.82;;;0.50;99.90;;;;;;4890757;29;20055;-63
2023/04/04 07:22:41;;;;;;;7.25;1.27;;;0.50;99.90;;;;;;4890459;29;20084;-62
2023/04/04 07:25:08;;;;;;;4.70;2.20;;;0.50;99.90;;;;;;4890598;29;20075;-61
2023/04/04 07:27:35;;;;;;;8.00;1.08;;;0.50;99.90;;;;;;4886995;29;20089;-62
2023/04/04 07:30:03;;;;;;;2.92;0.85;;;0.60;99.90;;;;;;4893097;29;20044;-61
2023/04/04 07:32:30;;;;;;;4.35;1.15;;;0.60;99.90;;;;;;4887396;29;20048;-60
2023/04/04 07:34:57;;;;;;;4.70;1.17;;;0.60;99.90;;;;;;4890678;29;20127;-60
2023/04/04 07:37:25;;;;;;;5.80;0.80;;;0.70;99.90;;;;;;4889847;29;20550;-61
2023/04/04 07:39:52;;;;;;;3.58;2.15;;;0.70;99.90;;;;;;4888848;29;20559;-62
2023/04/04 07:42:22;;;;;;;6.00;0.77;;;0.80;99.90;;;;;;4890380;29;20088;-65
2023/04/04 07:44:49;;;;;;;3.15;0.98;;;0.90;99.90;;;;;;4890260;29;20627;-62
2023/04/04 07:47:17;;;;;;;6.05;0.85;;;0.80;99.90;;;;;;4888876;29;20054;-61
2023/04/04 07:49:44;;;;;;;7.50;1.08;;;0.90;99.90;;;;;;4890035;29;20049;-61
2023/04/04 07:52:12;;;;;;;4.95;1.08;;;1.00;99.90;;;;;;4886763;29;20133;-62
2023/04/04 07:54:39;;;;;;;12.88;1.83;;;1.00;99.90;;;;;;4890859;29;20104;-60
2023/04/04 07:57:08;;;;;;;5.45;1.42;;;1.00;99.90;;;;;;4888797;29;20112;-62
2023/04/04 07:59:36;;;;;;;8.25;1.35;;;1.10;99.90;;;;;;4888307;29;20091;-62
2023/04/04 08:02:03;;;;;;;0.85;0.70;;;1.10;99.90;;;;;;4890526;29;20136;-62
2023/04/04 08:04:30;;;;;;;3.75;0.82;;;1.20;99.90;;;;;;4886660;29;20065;-61
2023/04/04 08:06:57;;;;;;;8.80;1.50;;;1.10;99.90;;;;;;4888882;29;20061;-63
2023/04/04 08:09:24;;;;;;;5.53;1.00;;;1.20;99.90;;;;;;4889462;29;20104;-61
2023/04/04 08:11:51;;;;;;;4.35;1.25;;;1.30;99.90;;;;;;4888435;29;20048;-61
2023/04/04 08:14:18;;;;;;;3.22;2.70;;;1.40;99.90;;;;;;4890477;29;20061;-61
2023/04/04 08:16:45;;;;;;;7.50;1.38;;;1.50;99.90;;;;;;4888229;29;20131;-63
2023/04/04 08:19:12;;;;;;;3.67;1.10;;;1.60;99.90;;;;;;4888095;29;20096;-61
2023/04/04 08:21:39;;;;;;;2.25;0.82;;;1.60;99.90;;;;;;4886112;29;20550;-62
2023/04/04 08:24:06;;;;;;;1.38;0.70;;;1.60;99.90;;;;;;4890899;29;20052;-61
2023/04/04 08:26:33;;;;;;;6.28;1.25;;;1.60;99.90;;;;;;4888439;29;20148;-62
2023/04/04 08:29:00;;;;;;;6.57;1.10;;;1.60;99.90;;;;;;4889608;29;20060;-62
2023/04/04 08:31:28;;;;;;;7.15;1.13;;;1.70;99.90;;;;;;4889656;29;20096;-64
2023/04/04 08:33:55;;;;;;;1.00;0.40;;;1.80;99.90;;;;;;4890089;29;20041;-60
2023/04/04 08:36:22;;;;;;;6.50;1.00;;;1.90;99.90;;;;;;4888109;29;20426;-61
2023/04/04 08:38:49;;;;;;;1.73;1.05;;;2.00;99.90;;;;;;4889870;29;20403;-62
2023/04/04 08:41:16;;;;;;;3.60;0.98;;;2.00;99.90;;;;;;4888681;29;20056;-60
2023/04/04 08:43:53;;;;;;;2.50;1.00;;;2.00;99.90;;;;;;4884120;29;20088;-62
2023/04/04 08:46:22;;;;;;;2.50;1.13;;;2.00;99.90;;;;;;4888349;29;20063;-60
2023/04/04 08:48:51;;;;;;;4.80;1.40;;;1.90;99.90;;;;;;4889360;29;20159;-61
2023/04/04 08:51:21;;;;;;;4.55;0.90;;;2.00;99.90;;;;;;4887105;29;20628;-61
2023/04/04 08:53:48;;;;;;;6.97;2.83;;;1.90;99.90;;;;;;4887334;29;20081;-61
2023/04/04 08:56:15;;;;;;;5.28;1.67;;;2.00;99.90;;;;;;4889388;29;20075;-60
2023/04/04 08:58:42;;;;;;;6.90;1.42;;;2.00;99.90;;;;;;4888321;29;20132;-60
2023/04/04 09:01:09;;;;;;;4.57;0.90;;;2.00;99.90;;;;;;4889501;29;20076;-62
2023/04/04 09:03:36;;;;;;;2.00;0.90;;;2.10;99.90;;;;;;4886306;29;20538;-61
2023/04/04 09:06:04;;;;;;;1.52;0.73;;;2.10;99.90;;;;;;4886918;29;20049;-65
2023/04/04 09:08:31;;;;;;;6.70;1.65;;;2.00;99.90;;;;;;4888501;29;20573;-62
2023/04/04 09:11:02;;;;;;;3.00;1.13;;;1.90;99.90;;;;;;4888684;29;20187;-61
2023/04/04 09:13:29;;;;;;;4.00;1.33;;;1.90;99.90;;;;;;4887652;29;20067;-63
2023/04/04 09:15:57;;;;;;;3.22;1.00;;;1.80;99.90;;;;;;4889247;29;20049;-61
2023/04/04 09:18:23;;;;;;;4.18;1.23;;;1.70;99.90;;;;;;4887759;29;20104;-62
2023/04/04 09:20:50;;;;;;;5.60;1.10;;;1.70;99.90;;;;;;4888181;29;20100;-61
2023/04/04 09:23:19;;;;;;;8.35;1.80;;;1.60;99.90;;;;;;4886083;29;20087;-61
2023/04/04 09:25:47;;;;;;;5.30;1.92;;;1.70;99.90;;;;;;4883235;29;20052;-63
2023/04/04 09:28:30;;;;;;;4.30;1.05;;;1.70;99.90;;;;;;4888637;29;20397;-60
2023/04/04 09:31:00;;;;;;;3.47;1.15;;;1.70;99.90;;;;;;4888317;29;20051;-60
2023/04/04 09:33:28;;;;;;;2.60;1.23;;;1.90;99.90;;;;;;4888977;29;20076;-61
2023/04/04 09:36:02;;;;;;;5.75;1.70;;;2.00;99.90;;;;;;4886453;29;20056;-64
2023/04/04 09:38:30;;;;;;;4.32;1.00;;;2.00;99.90;;;;;;4885565;29;20072;-65
2023/04/04 09:40:57;;;;;;;6.97;2.15;;;2.00;99.90;;;;;;4887766;29;20163;-60
2023/04/04 09:43:24;;;;;;;2.60;1.17;;;2.00;99.90;;;;;;4888845;29;20530;-61
2023/04/04 09:45:53;;;;;;;2.20;0.90;;;2.10;99.90;;;;;;4887701;29;20083;-61
2023/04/04 09:48:33;;;;;;;13.10;1.60;;;2.20;99.90;;;;;;4875407;29;20049;-61
2023/04/04 09:51:03;;;;;;;9.82;1.40;;;2.20;99.90;;;;;;4891263;29;20163;-61
2023/04/04 09:53:34;;;;;;;5.90;2.42;;;2.20;99.90;;;;;;4886215;29;20092;-61
2023/04/04 09:56:01;;;;;;;3.22;1.23;;;2.10;99.90;;;;;;4888146;29;20551;-61
2023/04/04 09:58:31;;;;;;;3.83;0.90;;;2.20;99.90;;;;;;4887404;29;20064;-64
2023/04/04 10:01:00;;;;;;;5.72;0.95;;;2.20;99.90;;;;;;4887539;29;20091;-61
2023/04/04 10:03:28;;;;;;;2.45;1.48;;;2.30;99.90;;;;;;4888842;29;20143;-63
2023/04/04 10:05:59;;;;;;;3.47;0.95;;;2.30;99.90;;;;;;4885888;29;20534;-61
2023/04/04 10:08:28;;;;;;;6.15;1.23;;;2.30;99.90;;;;;;4887338;29;20162;-63
2023/04/04 10:10:57;;;;;;;1.52;0.88;;;2.40;99.90;;;;;;4885282;29;20467;-64
2023/04/04 10:13:39;;;;;;;1.40;1.27;;;2.40;99.90;;;;;;4885359;29;20418;-61
2023/04/04 10:16:07;;;;;;;;;;;2.30;99.90;;;;;;4887726;29;20064;-66
2023/04/04 10:18:35;;;;;;;1.48;0.80;;;2.40;99.90;;;;;;4887795;29;19928;-61
2023/04/04 10:21:05;;;;;;;3.13;0.95;;;2.40;99.90;;;;;;4887350;29;20068;-61
2023/04/04 10:23:37;;;;;;;2.15;1.55;;;2.40;99.90;;;;;;4883523;29;20068;-62
2023/04/04 10:26:04;;;;;;;9.07;5.22;;;2.60;99.90;;;;;;4881150;29;20064;-61
2023/04/04 10:28:31;;;;;;;3.35;1.00;;;2.70;99.90;;;;;;4884829;29;20059;-60
2023/04/04 10:31:23;;;;;;;2.53;0.80;;;2.70;99.90;;;;;;4885376;29;20064;-62
2023/04/04 10:33:56;;;;;;;13.85;1.38;;;2.70;99.90;;;;;;4886305;29;20079;-62
2023/04/04 10:36:26;;;;;;;6.10;1.80;;;2.70;99.90;;;;;;4888124;29;20048;-61
2023/04/04 10:39:07;;;;;;;2.00;1.13;;;2.60;99.90;;;;;;4889273;29;20159;-62
2023/04/04 10:41:35;;;;;;;5.13;1.20;;;2.70;99.90;;;;;;4885324;29;20049;-66
2023/04/04 10:44:21;;;;;;;4.47;1.05;;;2.70;99.90;;;;;;4885783;29;20411;-65
2023/04/04 10:46:53;;;;;;;2.08;1.17;;;2.70;99.90;;;;;;4886570;29;20044;-66
2023/04/04 10:49:21;;;;;;;3.58;0.82;;;2.80;99.90;;;;;;4885230;29;20064;-61
2023/04/04 10:51:50;;;;;;;5.72;2.60;;;2.80;99.90;;;;;;4881735;29;20066;-63
2023/04/04 10:54:24;;;;;;;14.30;1.38;;;2.90;99.90;;;;;;4887500;29;20036;-62
2023/04/04 10:56:52;;;;;;;3.45;1.58;;;2.90;99.90;;;;;;4891197;29;20072;-62
2023/04/04 10:59:19;;;;;;;8.20;1.35;;;2.80;99.90;;;;;;4886616;29;20151;-63
2023/04/04 11:01:47;;;;;;;4.85;1.00;;;2.70;99.90;;;;;;4884811;29;20087;-67
2023/04/04 11:04:27;;;;;;;2.45;1.27;;;2.70;99.90;;;;;;4888746;29;20044;-65
2023/04/04 11:07:16;;;;;;;4.45;0.93;;;2.70;99.90;;;;;;4890336;29;20059;-63
2023/04/04 11:09:54;;;;;;;4.40;0.88;;;2.80;99.90;;;;;;4888365;29;20074;-65
2023/04/04 11:12:30;;;;;;;8.77;3.35;;;2.90;99.90;;;;;;4890695;29;20059;-62
2023/04/04 11:15:11;;;;;;;6.25;1.20;;;3.00;99.90;;;;;;4890685;29;20044;-67
2023/04/04 11:17:48;;;;;;;8.48;1.38;;;3.00;99.90;;;;;;4888172;29;20578;-63
2023/04/04 11:20:37;;;;;;;3.45;0.70;;;3.10;99.90;;;;;;4884369;29;20045;-63
2023/04/04 11:23:14;;;;;;;3.27;0.70;;;3.20;99.90;;;;;;4868619;29;20056;-63
2023/04/04 11:25:49;;;;;;;6.18;1.17;;;3.10;99.90;;;;;;4883850;29;20365;-65
2023/04/04 11:28:31;;;;;;;8.07;1.20;;;3.20;99.90;;;;;;4886735;29;20180;-66
2023/04/04 11:31:16;;;;;;;2.55;1.13;;;2.90;99.90;;;;;;4887692;29;20507;-65
2023/04/04 11:33:59;;;;;;;1.60;0.80;;;3.00;99.90;;;;;;4890549;29;20230;-65
2023/04/04 11:36:38;;;;;;;9.25;2.08;;;3.00;99.90;;;;;;4888759;29;20052;-62
2023/04/04 11:39:27;;;;;;;2.92;1.25;;;3.10;99.90;;;;;;4889175;29;20127;-65
2023/04/04 11:42:10;;;;;;;4.35;1.63;;;3.10;99.90;;;;;;4886028;29;20085;-68
2023/04/04 11:45:00;;;;;;;2.03;1.35;;;3.20;99.90;;;;;;4884390;29;20048;-66
2023/04/04 11:47:28;;;;;;;;;;;3.20;99.90;;;;;;4870800;29;20061;-63
2023/04/04 11:49:55;;;;;;;5.10;1.27;;;3.00;99.90;;;;;;4889220;29;19971;-62
2023/04/04 11:52:24;;;;;;;3.92;1.13;;;3.10;99.90;;;;;;4889497;29;20060;-62
2023/04/04 11:54:51;;;;;;;4.07;0.80;;;3.10;99.90;;;;;;4889201;29;20044;-62
2023/04/04 11:57:19;;;;;;;2.08;1.13;;;3.20;99.90;;;;;;4890066;29;20128;-63
2023/04/04 11:59:50;;;;;;;1.60;0.75;;;3.30;99.90;;;;;;4889478;29;20056;-66
2023/04/04 12:02:28;;;;;;;6.70;3.83;;;3.30;99.90;;;;;;4888241;29;20147;-66
2023/04/04 12:04:56;;;;;;;1.58;1.30;;;3.10;99.90;;;;;;4890012;29;20116;-63
2023/04/04 12:07:23;;;;;;;2.40;1.73;;;3.20;99.90;;;;;;4887621;29;20403;-62
2023/04/04 12:09:51;;;;;;;3.08;1.17;;;3.30;99.90;;;;;;4885431;29;20575;-61
2023/04/04 12:12:18;;;;;;;4.45;1.25;;;3.10;99.90;;;;;;4890448;29;20052;-62
2023/04/04 12:14:46;;;;;;;4.45;1.35;;;3.20;99.90;;;;;;4890540;29;20542;-62
2023/04/04 12:17:14;;;;;;;1.70;1.27;;;3.20;99.90;;;;;;4888614;29;20048;-66
2023/04/04 12:19:42;;;;;;;3.53;0.95;;;3.40;99.90;;;;;;4890424;29;20143;-62
2023/04/04 12:22:09;;;;;;;6.07;1.27;;;3.40;99.90;;;;;;4886836;29;20056;-64
2023/04/04 12:24:36;;;;;;;6.65;0.85;;;3.30;99.90;;;;;;4888756;29;20144;-62
2023/04/04 12:27:04;;;;;;;8.00;1.02;;;3.30;99.90;;;;;;4889122;29;20048;-61
2023/04/04 12:29:37;;;;;;;2.85;0.80;;;3.50;99.90;;;;;;4888427;29;20526;-63
2023/04/04 12:32:06;;;;;;;3.00;1.13;;;3.50;99.90;;;;;;4886925;29;20423;-62
2023/04/04 12:34:34;;;;;;;5.43;0.90;;;3.40;99.90;;;;;;4891328;29;20164;-62
2023/04/04 12:37:02;;;;;;;1.52;0.85;;;3.50;99.90;;;;;;4886806;29;20124;-62
2023/04/04 12:39:30;;;;;;;1.88;0.80;;;3.50;99.90;;;;;;4888793;29;20041;-63
2023/04/04 12:42:04;;;;;;;1.83;1.10;;;3.30;99.90;;;;;;4889376;29;20127;-63
2023/04/04 12:44:35;;;;;;;11.43;3.15;;;3.30;99.90;;;;;;4889829;29;20075;-62
2023/04/04 12:47:04;;;;;;;10.77;1.25;;;3.40;99.90;;;;;;4889031;29;20143;-62
2023/04/04 12:49:38;;;;;;;3.67;1.05;;;3.30;99.90;;;;;;4888142;29;20120;-63
2023/04/04 12:52:07;;;;;;;11.68;1.42;;;3.10;99.90;;;;;;4887956;29;20053;-64
2023/04/04 12:54:37;;;;;;;2.40;0.70;;;3.20;99.90;;;;;;4875180;29;20123;-63
2023/04/04 12:57:06;;;;;;;4.40;1.35;;;3.20;99.90;;;;;;4889278;29;20060;-65
2023/04/04 12:59:35;;;;;;;12.90;4.13;;;3.30;99.90;;;;;;4884297;29;20079;-62
2023/04/04 13:02:08;;;;;;;4.15;1.10;;;3.40;99.90;;;;;;4889694;29;20075;-62